sensor_id;sensor_type;location;lat;lon;timestamp;P1;durP1;ratioP1;P2;durP2;ratioP2
30874;SDS011;17581;43.222;27.924;2023-10-31T00:00:55;70.82;;;37.10;;
30874;SDS011;17581;43.222;27.924;2023-10-31T00:03:20;77.10;;;40.40;;
30874;SDS011;17581;43.222;27.924;2023-10-31T00:05:46;85.00;;;40.83;;
30874;SDS011;17581;43.222;27.924;2023-10-31T00:08:11;71.13;;;39.35;;
30874;SDS011;17581;43.222;27.924;2023-10-31T00:10:36;72.05;;;39.72;;
30874;SDS011;17581;43.222;27.924;2023-10-31T00:13:02;71.22;;;39.75;;
30874;SDS011;17581;43.222;27.924;2023-10-31T00:15:27;73.03;;;38.78;;
30874;SDS011;17581;43.222;27.924;2023-10-31T00:17:55;77.22;;;39.97;;
30874;SDS011;17581;43.222;27.924;2023-10-31T00:20:20;75.70;;;39.10;;
30874;SDS011;17581;43.222;27.924;2023-10-31T00:22:46;70.72;;;40.20;;
30874;SDS011;17581;43.222;27.924;2023-10-31T00:25:12;76.43;;;43.83;;
30874;SDS011;17581;43.222;27.924;2023-10-31T00:27:37;69.28;;;41.92;;
30874;SDS011;17581;43.222;27.924;2023-10-31T00:30:03;63.65;;;40.83;;
30874;SDS011;17581;43.222;27.924;2023-10-31T00:32:29;72.30;;;42.03;;
30874;SDS011;17581;43.222;27.924;2023-10-31T00:34:54;67.28;;;42.72;;
30874;SDS011;17581;43.222;27.924;2023-10-31T00:37:20;69.88;;;42.58;;
30874;SDS011;17581;43.222;27.924;2023-10-31T00:39:45;74.13;;;41.25;;
30874;SDS011;17581;43.222;27.924;2023-10-31T00:42:10;75.57;;;44.28;;
30874;SDS011;17581;43.222;27.924;2023-10-31T00:44:36;79.32;;;41.83;;
30874;SDS011;17581;43.222;27.924;2023-10-31T00:47:01;64.63;;;39.78;;
30874;SDS011;17581;43.222;27.924;2023-10-31T00:49:29;76.20;;;45.65;;
30874;SDS011;17581;43.222;27.924;2023-10-31T00:51:55;77.57;;;45.17;;
30874;SDS011;17581;43.222;27.924;2023-10-31T00:54:20;78.80;;;46.10;;
30874;SDS011;17581;43.222;27.924;2023-10-31T00:56:46;76.90;;;45.58;;
30874;SDS011;17581;43.222;27.924;2023-10-31T00:59:11;80.22;;;46.92;;
30874;SDS011;17581;43.222;27.924;2023-10-31T01:01:37;87.78;;;45.35;;
30874;SDS011;17581;43.222;27.924;2023-10-31T01:04:02;77.07;;;46.58;;
30874;SDS011;17581;43.222;27.924;2023-10-31T01:06:28;80.78;;;44.15;;
30874;SDS011;17581;43.222;27.924;2023-10-31T01:08:53;73.65;;;45.35;;
30874;SDS011;17581;43.222;27.924;2023-10-31T01:11:19;91.70;;;45.10;;
30874;SDS011;17581;43.222;27.924;2023-10-31T01:13:44;80.47;;;45.75;;
30874;SDS011;17581;43.222;27.924;2023-10-31T01:16:10;91.05;;;49.72;;
30874;SDS011;17581;43.222;27.924;2023-10-31T01:18:36;90.68;;;49.17;;
30874;SDS011;17581;43.222;27.924;2023-10-31T01:21:01;91.72;;;51.45;;
30874;SDS011;17581;43.222;27.924;2023-10-31T01:23:27;84.55;;;48.17;;
30874;SDS011;17581;43.222;27.924;2023-10-31T01:25:52;94.05;;;48.47;;
30874;SDS011;17581;43.222;27.924;2023-10-31T01:28:18;83.18;;;46.28;;
30874;SDS011;17581;43.222;27.924;2023-10-31T01:30:43;92.00;;;50.75;;
30874;SDS011;17581;43.222;27.924;2023-10-31T01:33:09;85.85;;;46.42;;
30874;SDS011;17581;43.222;27.924;2023-10-31T01:35:34;77.13;;;46.55;;
30874;SDS011;17581;43.222;27.924;2023-10-31T01:38:00;81.40;;;42.42;;
30874;SDS011;17581;43.222;27.924;2023-10-31T01:40:25;78.68;;;39.88;;
30874;SDS011;17581;43.222;27.924;2023-10-31T01:42:50;109.95;;;39.70;;
30874;SDS011;17581;43.222;27.924;2023-10-31T01:45:16;84.35;;;38.40;;
30874;SDS011;17581;43.222;27.924;2023-10-31T01:47:42;93.45;;;39.15;;
30874;SDS011;17581;43.222;27.924;2023-10-31T01:50:11;77.75;;;40.60;;
30874;SDS011;17581;43.222;27.924;2023-10-31T01:52:37;86.35;;;39.78;;
30874;SDS011;17581;43.222;27.924;2023-10-31T01:55:03;103.15;;;40.50;;
30874;SDS011;17581;43.222;27.924;2023-10-31T01:57:29;72.50;;;39.05;;
30874;SDS011;17581;43.222;27.924;2023-10-31T01:59:55;73.20;;;38.92;;
30874;SDS011;17581;43.222;27.924;2023-10-31T02:02:22;73.88;;;39.17;;
30874;SDS011;17581;43.222;27.924;2023-10-31T02:04:49;68.28;;;38.40;;
30874;SDS011;17581;43.222;27.924;2023-10-31T02:07:15;73.97;;;40.88;;
30874;SDS011;17581;43.222;27.924;2023-10-31T02:09:41;95.47;;;42.33;;
30874;SDS011;17581;43.222;27.924;2023-10-31T02:12:06;105.25;;;49.05;;
30874;SDS011;17581;43.222;27.924;2023-10-31T02:14:32;89.35;;;44.70;;
30874;SDS011;17581;43.222;27.924;2023-10-31T02:16:57;96.05;;;44.67;;
30874;SDS011;17581;43.222;27.924;2023-10-31T02:19:23;92.68;;;43.33;;
30874;SDS011;17581;43.222;27.924;2023-10-31T02:21:49;88.13;;;43.05;;
30874;SDS011;17581;43.222;27.924;2023-10-31T02:24:14;82.78;;;40.67;;
30874;SDS011;17581;43.222;27.924;2023-10-31T02:26:40;73.25;;;40.30;;
30874;SDS011;17581;43.222;27.924;2023-10-31T02:29:06;73.32;;;38.33;;
30874;SDS011;17581;43.222;27.924;2023-10-31T02:31:32;65.95;;;39.72;;
30874;SDS011;17581;43.222;27.924;2023-10-31T02:33:57;65.18;;;38.70;;
30874;SDS011;17581;43.222;27.924;2023-10-31T02:36:23;64.68;;;36.10;;
30874;SDS011;17581;43.222;27.924;2023-10-31T02:38:48;60.05;;;37.13;;
30874;SDS011;17581;43.222;27.924;2023-10-31T02:41:14;62.97;;;37.70;;
30874;SDS011;17581;43.222;27.924;2023-10-31T02:43:41;62.08;;;38.08;;
30874;SDS011;17581;43.222;27.924;2023-10-31T02:46:06;62.40;;;35.72;;
30874;SDS011;17581;43.222;27.924;2023-10-31T02:48:32;75.38;;;37.97;;
30874;SDS011;17581;43.222;27.924;2023-10-31T02:51:06;73.22;;;37.38;;
30874;SDS011;17581;43.222;27.924;2023-10-31T02:53:32;72.97;;;38.05;;
30874;SDS011;17581;43.222;27.924;2023-10-31T02:55:58;75.03;;;37.95;;
30874;SDS011;17581;43.222;27.924;2023-10-31T02:58:24;66.55;;;37.15;;
30874;SDS011;17581;43.222;27.924;2023-10-31T03:00:49;61.83;;;35.83;;
30874;SDS011;17581;43.222;27.924;2023-10-31T03:03:15;61.55;;;37.35;;
30874;SDS011;17581;43.222;27.924;2023-10-31T03:05:41;61.90;;;34.40;;
30874;SDS011;17581;43.222;27.924;2023-10-31T03:08:06;59.42;;;35.85;;
30874;SDS011;17581;43.222;27.924;2023-10-31T03:10:33;65.20;;;32.38;;
30874;SDS011;17581;43.222;27.924;2023-10-31T03:12:58;53.45;;;31.38;;
30874;SDS011;17581;43.222;27.924;2023-10-31T03:15:24;51.67;;;30.52;;
30874;SDS011;17581;43.222;27.924;2023-10-31T03:17:50;54.28;;;31.88;;
30874;SDS011;17581;43.222;27.924;2023-10-31T03:20:15;53.15;;;32.20;;
30874;SDS011;17581;43.222;27.924;2023-10-31T03:22:41;51.55;;;30.73;;
30874;SDS011;17581;43.222;27.924;2023-10-31T03:25:06;45.40;;;27.75;;
30874;SDS011;17581;43.222;27.924;2023-10-31T03:27:32;54.33;;;29.00;;
30874;SDS011;17581;43.222;27.924;2023-10-31T03:29:57;55.63;;;31.25;;
30874;SDS011;17581;43.222;27.924;2023-10-31T03:32:23;49.45;;;29.45;;
30874;SDS011;17581;43.222;27.924;2023-10-31T03:34:48;46.78;;;28.08;;
30874;SDS011;17581;43.222;27.924;2023-10-31T03:37:13;58.55;;;30.33;;
30874;SDS011;17581;43.222;27.924;2023-10-31T03:39:39;57.13;;;31.33;;
30874;SDS011;17581;43.222;27.924;2023-10-31T03:42:04;58.22;;;30.83;;
30874;SDS011;17581;43.222;27.924;2023-10-31T03:44:30;55.10;;;31.13;;
30874;SDS011;17581;43.222;27.924;2023-10-31T03:46:56;48.75;;;29.85;;
30874;SDS011;17581;43.222;27.924;2023-10-31T03:49:21;48.80;;;31.33;;
30874;SDS011;17581;43.222;27.924;2023-10-31T03:51:46;47.75;;;30.67;;
30874;SDS011;17581;43.222;27.924;2023-10-31T03:54:12;48.88;;;30.17;;
30874;SDS011;17581;43.222;27.924;2023-10-31T03:56:38;44.95;;;31.52;;
30874;SDS011;17581;43.222;27.924;2023-10-31T03:59:07;44.95;;;31.05;;
30874;SDS011;17581;43.222;27.924;2023-10-31T04:01:33;48.60;;;32.17;;
30874;SDS011;17581;43.222;27.924;2023-10-31T04:03:58;45.15;;;31.40;;
30874;SDS011;17581;43.222;27.924;2023-10-31T04:06:24;47.50;;;31.80;;
30874;SDS011;17581;43.222;27.924;2023-10-31T04:08:49;50.78;;;33.30;;
30874;SDS011;17581;43.222;27.924;2023-10-31T04:11:15;50.65;;;32.10;;
30874;SDS011;17581;43.222;27.924;2023-10-31T04:13:40;48.65;;;32.33;;
30874;SDS011;17581;43.222;27.924;2023-10-31T04:16:06;47.45;;;33.42;;
30874;SDS011;17581;43.222;27.924;2023-10-31T04:18:32;50.58;;;31.73;;
30874;SDS011;17581;43.222;27.924;2023-10-31T04:20:57;59.35;;;33.53;;
30874;SDS011;17581;43.222;27.924;2023-10-31T04:23:23;45.90;;;29.27;;
30874;SDS011;17581;43.222;27.924;2023-10-31T04:25:49;47.90;;;29.02;;
30874;SDS011;17581;43.222;27.924;2023-10-31T04:28:17;48.35;;;30.55;;
30874;SDS011;17581;43.222;27.924;2023-10-31T04:30:43;46.38;;;28.30;;
30874;SDS011;17581;43.222;27.924;2023-10-31T04:33:08;48.33;;;28.35;;
30874;SDS011;17581;43.222;27.924;2023-10-31T04:35:34;47.47;;;28.33;;
30874;SDS011;17581;43.222;27.924;2023-10-31T04:37:59;89.15;;;32.92;;
30874;SDS011;17581;43.222;27.924;2023-10-31T04:40:25;45.45;;;29.42;;
30874;SDS011;17581;43.222;27.924;2023-10-31T04:42:50;58.65;;;29.00;;
30874;SDS011;17581;43.222;27.924;2023-10-31T04:45:16;49.65;;;26.67;;
30874;SDS011;17581;43.222;27.924;2023-10-31T04:47:41;55.67;;;27.45;;
30874;SDS011;17581;43.222;27.924;2023-10-31T04:50:07;53.45;;;27.05;;
30874;SDS011;17581;43.222;27.924;2023-10-31T04:52:33;41.33;;;26.88;;
30874;SDS011;17581;43.222;27.924;2023-10-31T04:54:58;56.20;;;27.50;;
30874;SDS011;17581;43.222;27.924;2023-10-31T04:57:24;40.20;;;25.05;;
30874;SDS011;17581;43.222;27.924;2023-10-31T04:59:49;89.88;;;29.65;;
30874;SDS011;17581;43.222;27.924;2023-10-31T05:02:15;31.13;;;19.33;;
30874;SDS011;17581;43.222;27.924;2023-10-31T05:04:40;77.38;;;24.33;;
30874;SDS011;17581;43.222;27.924;2023-10-31T05:07:06;58.88;;;25.02;;
30874;SDS011;17581;43.222;27.924;2023-10-31T05:09:32;45.58;;;21.50;;
30874;SDS011;17581;43.222;27.924;2023-10-31T05:11:57;38.42;;;21.13;;
30874;SDS011;17581;43.222;27.924;2023-10-31T05:14:23;27.38;;;19.08;;
30874;SDS011;17581;43.222;27.924;2023-10-31T05:16:48;58.92;;;22.50;;
30874;SDS011;17581;43.222;27.924;2023-10-31T05:19:13;42.78;;;21.10;;
30874;SDS011;17581;43.222;27.924;2023-10-31T05:21:39;43.72;;;20.20;;
30874;SDS011;17581;43.222;27.924;2023-10-31T05:24:04;32.97;;;18.45;;
30874;SDS011;17581;43.222;27.924;2023-10-31T05:26:30;36.28;;;18.00;;
30874;SDS011;17581;43.222;27.924;2023-10-31T05:28:56;34.92;;;20.77;;
30874;SDS011;17581;43.222;27.924;2023-10-31T05:31:23;31.67;;;19.27;;
30874;SDS011;17581;43.222;27.924;2023-10-31T05:33:49;43.97;;;19.85;;
30874;SDS011;17581;43.222;27.924;2023-10-31T05:36:19;59.45;;;20.42;;
30874;SDS011;17581;43.222;27.924;2023-10-31T05:38:45;32.83;;;16.88;;
30874;SDS011;17581;43.222;27.924;2023-10-31T05:41:11;27.88;;;18.88;;
30874;SDS011;17581;43.222;27.924;2023-10-31T05:43:37;45.75;;;20.38;;
30874;SDS011;17581;43.222;27.924;2023-10-31T05:46:02;46.08;;;20.50;;
30874;SDS011;17581;43.222;27.924;2023-10-31T05:48:28;32.17;;;17.08;;
30874;SDS011;17581;43.222;27.924;2023-10-31T05:50:56;32.03;;;17.42;;
30874;SDS011;17581;43.222;27.924;2023-10-31T05:53:21;44.55;;;18.33;;
30874;SDS011;17581;43.222;27.924;2023-10-31T05:55:47;40.10;;;19.30;;
30874;SDS011;17581;43.222;27.924;2023-10-31T05:58:12;36.42;;;19.40;;
30874;SDS011;17581;43.222;27.924;2023-10-31T06:00:37;37.40;;;20.00;;
30874;SDS011;17581;43.222;27.924;2023-10-31T06:03:03;29.52;;;17.33;;
30874;SDS011;17581;43.222;27.924;2023-10-31T06:05:28;30.08;;;15.70;;
30874;SDS011;17581;43.222;27.924;2023-10-31T06:07:54;30.05;;;17.25;;
30874;SDS011;17581;43.222;27.924;2023-10-31T06:10:20;29.92;;;18.63;;
30874;SDS011;17581;43.222;27.924;2023-10-31T06:12:46;42.15;;;19.33;;
30874;SDS011;17581;43.222;27.924;2023-10-31T06:15:12;37.17;;;17.88;;
30874;SDS011;17581;43.222;27.924;2023-10-31T06:17:37;33.80;;;18.73;;
30874;SDS011;17581;43.222;27.924;2023-10-31T06:20:03;46.80;;;18.52;;
30874;SDS011;17581;43.222;27.924;2023-10-31T06:22:29;34.72;;;16.38;;
30874;SDS011;17581;43.222;27.924;2023-10-31T06:24:54;30.08;;;17.10;;
30874;SDS011;17581;43.222;27.924;2023-10-31T06:27:19;44.08;;;18.40;;
30874;SDS011;17581;43.222;27.924;2023-10-31T06:29:45;29.95;;;18.58;;
30874;SDS011;17581;43.222;27.924;2023-10-31T06:32:10;31.38;;;18.95;;
30874;SDS011;17581;43.222;27.924;2023-10-31T06:34:36;45.67;;;19.83;;
30874;SDS011;17581;43.222;27.924;2023-10-31T06:37:01;52.55;;;17.80;;
30874;SDS011;17581;43.222;27.924;2023-10-31T06:39:28;26.75;;;14.73;;
30874;SDS011;17581;43.222;27.924;2023-10-31T06:41:56;34.42;;;14.45;;
30874;SDS011;17581;43.222;27.924;2023-10-31T06:44:22;27.95;;;15.60;;
30874;SDS011;17581;43.222;27.924;2023-10-31T06:46:47;47.40;;;17.02;;
30874;SDS011;17581;43.222;27.924;2023-10-31T06:49:13;45.75;;;16.38;;
30874;SDS011;17581;43.222;27.924;2023-10-31T06:51:38;42.05;;;15.80;;
30874;SDS011;17581;43.222;27.924;2023-10-31T06:54:04;59.03;;;18.48;;
30874;SDS011;17581;43.222;27.924;2023-10-31T06:56:29;28.35;;;15.20;;
30874;SDS011;17581;43.222;27.924;2023-10-31T06:58:55;36.00;;;16.13;;
30874;SDS011;17581;43.222;27.924;2023-10-31T07:01:20;38.40;;;16.58;;
30874;SDS011;17581;43.222;27.924;2023-10-31T07:03:47;34.45;;;14.23;;
30874;SDS011;17581;43.222;27.924;2023-10-31T07:06:12;32.85;;;14.55;;
30874;SDS011;17581;43.222;27.924;2023-10-31T07:08:38;20.80;;;12.45;;
30874;SDS011;17581;43.222;27.924;2023-10-31T07:11:03;40.05;;;16.27;;
30874;SDS011;17581;43.222;27.924;2023-10-31T07:13:30;25.27;;;13.63;;
30874;SDS011;17581;43.222;27.924;2023-10-31T07:15:55;39.25;;;12.13;;
30874;SDS011;17581;43.222;27.924;2023-10-31T07:18:21;37.88;;;17.38;;
30874;SDS011;17581;43.222;27.924;2023-10-31T07:20:46;43.65;;;13.23;;
30874;SDS011;17581;43.222;27.924;2023-10-31T07:23:12;22.67;;;11.93;;
30874;SDS011;17581;43.222;27.924;2023-10-31T07:25:37;24.50;;;11.93;;
30874;SDS011;17581;43.222;27.924;2023-10-31T07:28:03;40.38;;;13.02;;
30874;SDS011;17581;43.222;27.924;2023-10-31T07:30:28;29.15;;;12.05;;
30874;SDS011;17581;43.222;27.924;2023-10-31T07:32:55;37.20;;;14.65;;
30874;SDS011;17581;43.222;27.924;2023-10-31T07:35:20;34.28;;;12.73;;
30874;SDS011;17581;43.222;27.924;2023-10-31T07:37:46;26.55;;;11.32;;
30874;SDS011;17581;43.222;27.924;2023-10-31T07:40:11;33.17;;;12.63;;
30874;SDS011;17581;43.222;27.924;2023-10-31T07:42:37;21.75;;;11.55;;
30874;SDS011;17581;43.222;27.924;2023-10-31T07:45:03;36.03;;;12.40;;
30874;SDS011;17581;43.222;27.924;2023-10-31T07:47:28;29.02;;;12.20;;
30874;SDS011;17581;43.222;27.924;2023-10-31T07:49:54;27.73;;;11.30;;
30874;SDS011;17581;43.222;27.924;2023-10-31T07:52:19;29.23;;;10.73;;
30874;SDS011;17581;43.222;27.924;2023-10-31T07:54:45;24.25;;;11.85;;
30874;SDS011;17581;43.222;27.924;2023-10-31T07:57:10;28.35;;;11.80;;
30874;SDS011;17581;43.222;27.924;2023-10-31T07:59:48;22.08;;;11.50;;
30874;SDS011;17581;43.222;27.924;2023-10-31T08:02:13;17.45;;;9.23;;
30874;SDS011;17581;43.222;27.924;2023-10-31T08:04:39;22.58;;;10.18;;
30874;SDS011;17581;43.222;27.924;2023-10-31T08:07:04;34.22;;;13.68;;
30874;SDS011;17581;43.222;27.924;2023-10-31T08:09:29;27.98;;;10.85;;
30874;SDS011;17581;43.222;27.924;2023-10-31T08:11:55;38.28;;;10.52;;
30874;SDS011;17581;43.222;27.924;2023-10-31T08:14:20;14.15;;;10.27;;
30874;SDS011;17581;43.222;27.924;2023-10-31T08:16:47;22.45;;;8.98;;
30874;SDS011;17581;43.222;27.924;2023-10-31T08:19:13;25.42;;;9.32;;
30874;SDS011;17581;43.222;27.924;2023-10-31T08:21:39;31.20;;;10.75;;
30874;SDS011;17581;43.222;27.924;2023-10-31T08:24:05;25.20;;;11.32;;
30874;SDS011;17581;43.222;27.924;2023-10-31T08:26:31;31.23;;;12.10;;
30874;SDS011;17581;43.222;27.924;2023-10-31T08:28:57;20.17;;;9.05;;
30874;SDS011;17581;43.222;27.924;2023-10-31T08:31:23;24.40;;;10.52;;
30874;SDS011;17581;43.222;27.924;2023-10-31T08:33:49;20.00;;;9.52;;
30874;SDS011;17581;43.222;27.924;2023-10-31T08:36:14;30.67;;;12.13;;
30874;SDS011;17581;43.222;27.924;2023-10-31T08:38:40;30.42;;;12.23;;
30874;SDS011;17581;43.222;27.924;2023-10-31T08:41:06;37.10;;;10.52;;
30874;SDS011;17581;43.222;27.924;2023-10-31T08:43:31;19.23;;;8.73;;
30874;SDS011;17581;43.222;27.924;2023-10-31T08:45:57;22.90;;;9.43;;
30874;SDS011;17581;43.222;27.924;2023-10-31T08:48:22;20.85;;;10.93;;
30874;SDS011;17581;43.222;27.924;2023-10-31T08:50:48;21.45;;;8.00;;
30874;SDS011;17581;43.222;27.924;2023-10-31T08:53:13;20.00;;;10.13;;
30874;SDS011;17581;43.222;27.924;2023-10-31T08:55:39;13.00;;;9.15;;
30874;SDS011;17581;43.222;27.924;2023-10-31T08:58:08;25.63;;;9.50;;
30874;SDS011;17581;43.222;27.924;2023-10-31T09:00:35;26.63;;;10.68;;
30874;SDS011;17581;43.222;27.924;2023-10-31T09:03:01;19.02;;;10.65;;
30874;SDS011;17581;43.222;27.924;2023-10-31T09:05:26;30.75;;;11.23;;
30874;SDS011;17581;43.222;27.924;2023-10-31T09:07:52;25.27;;;9.30;;
30874;SDS011;17581;43.222;27.924;2023-10-31T09:10:17;15.90;;;9.25;;
30874;SDS011;17581;43.222;27.924;2023-10-31T09:12:43;21.08;;;9.25;;
30874;SDS011;17581;43.222;27.924;2023-10-31T09:15:08;21.30;;;9.20;;
30874;SDS011;17581;43.222;27.924;2023-10-31T09:17:34;25.83;;;8.50;;
30874;SDS011;17581;43.222;27.924;2023-10-31T09:20:00;23.35;;;10.20;;
30874;SDS011;17581;43.222;27.924;2023-10-31T09:22:25;36.08;;;11.10;;
30874;SDS011;17581;43.222;27.924;2023-10-31T09:24:51;15.98;;;7.80;;
30874;SDS011;17581;43.222;27.924;2023-10-31T09:27:16;19.75;;;9.43;;
30874;SDS011;17581;43.222;27.924;2023-10-31T09:29:41;17.60;;;8.35;;
30874;SDS011;17581;43.222;27.924;2023-10-31T09:32:07;19.55;;;8.25;;
30874;SDS011;17581;43.222;27.924;2023-10-31T09:34:32;18.08;;;8.85;;
30874;SDS011;17581;43.222;27.924;2023-10-31T09:36:58;18.35;;;9.15;;
30874;SDS011;17581;43.222;27.924;2023-10-31T09:39:23;26.55;;;9.40;;
30874;SDS011;17581;43.222;27.924;2023-10-31T09:41:49;21.50;;;9.60;;
30874;SDS011;17581;43.222;27.924;2023-10-31T09:44:15;13.40;;;8.27;;
30874;SDS011;17581;43.222;27.924;2023-10-31T09:46:40;15.00;;;8.13;;
30874;SDS011;17581;43.222;27.924;2023-10-31T09:49:06;99.05;;;17.45;;
30874;SDS011;17581;43.222;27.924;2023-10-31T09:51:33;33.67;;;11.18;;
30874;SDS011;17581;43.222;27.924;2023-10-31T09:53:59;14.48;;;8.50;;
30874;SDS011;17581;43.222;27.924;2023-10-31T09:56:26;26.15;;;10.10;;
30874;SDS011;17581;43.222;27.924;2023-10-31T09:58:59;29.23;;;8.98;;
30874;SDS011;17581;43.222;27.924;2023-10-31T10:01:25;21.15;;;9.40;;
30874;SDS011;17581;43.222;27.924;2023-10-31T10:03:51;32.65;;;10.20;;
30874;SDS011;17581;43.222;27.924;2023-10-31T10:06:17;22.38;;;9.77;;
30874;SDS011;17581;43.222;27.924;2023-10-31T10:08:46;33.13;;;9.80;;
30874;SDS011;17581;43.222;27.924;2023-10-31T10:11:12;33.97;;;10.57;;
30874;SDS011;17581;43.222;27.924;2023-10-31T10:13:37;23.02;;;8.15;;
30874;SDS011;17581;43.222;27.924;2023-10-31T10:16:03;26.50;;;11.07;;
30874;SDS011;17581;43.222;27.924;2023-10-31T10:18:33;19.10;;;10.00;;
30874;SDS011;17581;43.222;27.924;2023-10-31T10:21:01;19.67;;;10.23;;
30874;SDS011;17581;43.222;27.924;2023-10-31T10:23:28;15.50;;;9.25;;
30874;SDS011;17581;43.222;27.924;2023-10-31T10:25:55;24.73;;;10.10;;
30874;SDS011;17581;43.222;27.924;2023-10-31T10:28:22;32.08;;;9.50;;
30874;SDS011;17581;43.222;27.924;2023-10-31T10:30:49;19.75;;;8.98;;
30874;SDS011;17581;43.222;27.924;2023-10-31T10:33:16;18.80;;;10.13;;
30874;SDS011;17581;43.222;27.924;2023-10-31T10:35:42;17.90;;;9.43;;
30874;SDS011;17581;43.222;27.924;2023-10-31T10:38:18;70.18;;;12.77;;
30874;SDS011;17581;43.222;27.924;2023-10-31T10:40:45;28.35;;;11.57;;
30874;SDS011;17581;43.222;27.924;2023-10-31T10:43:20;17.90;;;10.82;;
30874;SDS011;17581;43.222;27.924;2023-10-31T10:45:49;25.73;;;10.63;;
30874;SDS011;17581;43.222;27.924;2023-10-31T10:48:26;33.92;;;10.13;;
30874;SDS011;17581;43.222;27.924;2023-10-31T10:51:12;64.85;;;14.70;;
30874;SDS011;17581;43.222;27.924;2023-10-31T10:53:48;34.38;;;11.75;;
30874;SDS011;17581;43.222;27.924;2023-10-31T10:56:19;17.48;;;9.80;;
30874;SDS011;17581;43.222;27.924;2023-10-31T11:01:31;24.20;;;10.43;;
30874;SDS011;17581;43.222;27.924;2023-10-31T11:03:58;30.40;;;9.35;;
30874;SDS011;17581;43.222;27.924;2023-10-31T11:06:24;21.55;;;10.63;;
30874;SDS011;17581;43.222;27.924;2023-10-31T11:08:51;26.02;;;10.00;;
30874;SDS011;17581;43.222;27.924;2023-10-31T11:11:19;28.58;;;10.40;;
30874;SDS011;17581;43.222;27.924;2023-10-31T11:13:45;33.15;;;9.98;;
30874;SDS011;17581;43.222;27.924;2023-10-31T11:16:16;22.48;;;9.82;;
30874;SDS011;17581;43.222;27.924;2023-10-31T11:18:55;20.88;;;10.63;;
30874;SDS011;17581;43.222;27.924;2023-10-31T11:21:27;27.30;;;11.05;;
30874;SDS011;17581;43.222;27.924;2023-10-31T11:23:57;31.90;;;11.88;;
30874;SDS011;17581;43.222;27.924;2023-10-31T11:26:27;33.53;;;10.63;;
30874;SDS011;17581;43.222;27.924;2023-10-31T11:29:04;22.60;;;9.55;;
30874;SDS011;17581;43.222;27.924;2023-10-31T11:31:31;28.10;;;9.88;;
30874;SDS011;17581;43.222;27.924;2023-10-31T11:33:58;27.52;;;10.70;;
30874;SDS011;17581;43.222;27.924;2023-10-31T11:36:27;20.23;;;9.85;;
30874;SDS011;17581;43.222;27.924;2023-10-31T11:39:11;24.80;;;12.63;;
30874;SDS011;17581;43.222;27.924;2023-10-31T11:44:05;28.75;;;9.32;;
30874;SDS011;17581;43.222;27.924;2023-10-31T11:46:31;21.83;;;10.13;;
30874;SDS011;17581;43.222;27.924;2023-10-31T11:48:57;20.00;;;10.02;;
30874;SDS011;17581;43.222;27.924;2023-10-31T11:51:23;22.98;;;9.07;;
30874;SDS011;17581;43.222;27.924;2023-10-31T11:53:49;22.48;;;9.98;;
30874;SDS011;17581;43.222;27.924;2023-10-31T11:56:15;15.57;;;9.18;;
30874;SDS011;17581;43.222;27.924;2023-10-31T11:58:41;21.52;;;8.70;;
30874;SDS011;17581;43.222;27.924;2023-10-31T12:01:09;20.77;;;8.90;;
30874;SDS011;17581;43.222;27.924;2023-10-31T12:03:36;20.38;;;9.48;;
30874;SDS011;17581;43.222;27.924;2023-10-31T12:06:06;22.20;;;10.07;;
30874;SDS011;17581;43.222;27.924;2023-10-31T12:08:37;27.90;;;12.18;;
30874;SDS011;17581;43.222;27.924;2023-10-31T12:11:13;23.38;;;9.82;;
30874;SDS011;17581;43.222;27.924;2023-10-31T12:13:42;14.55;;;9.55;;
30874;SDS011;17581;43.222;27.924;2023-10-31T12:16:16;28.20;;;11.60;;
30874;SDS011;17581;43.222;27.924;2023-10-31T12:18:42;20.45;;;10.23;;
30874;SDS011;17581;43.222;27.924;2023-10-31T12:21:07;28.92;;;10.77;;
30874;SDS011;17581;43.222;27.924;2023-10-31T12:23:34;18.92;;;10.02;;
30874;SDS011;17581;43.222;27.924;2023-10-31T12:25:59;29.77;;;10.07;;
30874;SDS011;17581;43.222;27.924;2023-10-31T12:28:25;22.17;;;10.65;;
30874;SDS011;17581;43.222;27.924;2023-10-31T12:30:52;22.25;;;11.27;;
30874;SDS011;17581;43.222;27.924;2023-10-31T12:33:25;28.58;;;9.95;;
30874;SDS011;17581;43.222;27.924;2023-10-31T12:35:52;21.83;;;9.68;;
30874;SDS011;17581;43.222;27.924;2023-10-31T12:38:22;25.50;;;11.40;;
30874;SDS011;17581;43.222;27.924;2023-10-31T12:40:48;20.95;;;10.93;;
30874;SDS011;17581;43.222;27.924;2023-10-31T12:43:15;23.17;;;9.93;;
30874;SDS011;17581;43.222;27.924;2023-10-31T12:45:41;22.95;;;10.48;;
30874;SDS011;17581;43.222;27.924;2023-10-31T12:48:07;20.90;;;9.98;;
30874;SDS011;17581;43.222;27.924;2023-10-31T12:50:34;30.90;;;9.25;;
30874;SDS011;17581;43.222;27.924;2023-10-31T12:53:05;25.57;;;10.00;;
30874;SDS011;17581;43.222;27.924;2023-10-31T12:55:39;28.60;;;11.35;;
30874;SDS011;17581;43.222;27.924;2023-10-31T12:58:05;22.20;;;12.02;;
30874;SDS011;17581;43.222;27.924;2023-10-31T13:00:32;30.20;;;11.40;;
30874;SDS011;17581;43.222;27.924;2023-10-31T13:02:59;21.20;;;9.85;;
30874;SDS011;17581;43.222;27.924;2023-10-31T13:05:25;17.10;;;11.07;;
30874;SDS011;17581;43.222;27.924;2023-10-31T13:07:51;20.77;;;11.50;;
30874;SDS011;17581;43.222;27.924;2023-10-31T13:10:18;33.22;;;11.13;;
30874;SDS011;17581;43.222;27.924;2023-10-31T13:12:45;25.67;;;13.43;;
30874;SDS011;17581;43.222;27.924;2023-10-31T13:15:14;28.50;;;12.60;;
30874;SDS011;17581;43.222;27.924;2023-10-31T13:17:40;40.50;;;13.30;;
30874;SDS011;17581;43.222;27.924;2023-10-31T13:20:12;21.75;;;10.68;;
30874;SDS011;17581;43.222;27.924;2023-10-31T13:22:39;23.98;;;11.38;;
30874;SDS011;17581;43.222;27.924;2023-10-31T13:25:07;27.45;;;10.02;;
30874;SDS011;17581;43.222;27.924;2023-10-31T13:27:36;24.42;;;9.93;;
30874;SDS011;17581;43.222;27.924;2023-10-31T13:30:02;19.73;;;10.98;;
30874;SDS011;17581;43.222;27.924;2023-10-31T13:32:28;27.20;;;10.57;;
30874;SDS011;17581;43.222;27.924;2023-10-31T13:34:54;30.45;;;11.80;;
30874;SDS011;17581;43.222;27.924;2023-10-31T13:37:19;23.65;;;10.20;;
30874;SDS011;17581;43.222;27.924;2023-10-31T13:39:45;35.10;;;11.68;;
30874;SDS011;17581;43.222;27.924;2023-10-31T13:42:12;27.35;;;11.27;;
30874;SDS011;17581;43.222;27.924;2023-10-31T13:44:39;30.98;;;12.68;;
30874;SDS011;17581;43.222;27.924;2023-10-31T13:47:05;32.13;;;13.52;;
30874;SDS011;17581;43.222;27.924;2023-10-31T13:49:30;33.97;;;13.65;;
30874;SDS011;17581;43.222;27.924;2023-10-31T13:51:56;30.80;;;13.77;;
30874;SDS011;17581;43.222;27.924;2023-10-31T13:54:21;28.50;;;13.05;;
30874;SDS011;17581;43.222;27.924;2023-10-31T13:56:47;32.78;;;13.75;;
30874;SDS011;17581;43.222;27.924;2023-10-31T13:59:13;46.00;;;15.05;;
30874;SDS011;17581;43.222;27.924;2023-10-31T14:01:39;39.17;;;15.02;;
30874;SDS011;17581;43.222;27.924;2023-10-31T14:04:05;39.33;;;15.15;;
30874;SDS011;17581;43.222;27.924;2023-10-31T14:06:32;38.03;;;13.63;;
30874;SDS011;17581;43.222;27.924;2023-10-31T14:08:58;23.05;;;13.05;;
30874;SDS011;17581;43.222;27.924;2023-10-31T14:11:25;40.10;;;15.07;;